sensor_id;sensor_type;location;lat;lon;timestamp;temperature;humidity
22192;DHT22;11261;52.456;10.850;2023-07-20T00:00:51;17.20;99.90
22192;DHT22;11261;52.456;10.850;2023-07-20T00:03:20;17.20;99.90
22192;DHT22;11261;52.456;10.850;2023-07-20T00:05:50;17.10;99.90
22192;DHT22;11261;52.456;10.850;2023-07-20T00:08:18;17.00;99.90
22192;DHT22;11261;52.456;10.850;2023-07-20T00:10:48;17.00;99.90
22192;DHT22;11261;52.456;10.850;2023-07-20T00:13:16;17.20;99.90
22192;DHT22;11261;52.456;10.850;2023-07-20T00:15:46;17.00;99.90
22192;DHT22;11261;52.456;10.850;2023-07-20T00:18:14;16.90;99.90
22192;DHT22;11261;52.456;10.850;2023-07-20T00:20:42;16.90;99.90
22192;DHT22;11261;52.456;10.850;2023-07-20T00:23:10;16.90;99.90
22192;DHT22;11261;52.456;10.850;2023-07-20T00:25:39;16.90;99.90
22192;DHT22;11261;52.456;10.850;2023-07-20T00:28:08;16.80;99.90
22192;DHT22;11261;52.456;10.850;2023-07-20T00:30:38;16.70;99.90
22192;DHT22;11261;52.456;10.850;2023-07-20T00:33:09;16.80;99.90
22192;DHT22;11261;52.456;10.850;2023-07-20T00:35:38;16.70;99.90
22192;DHT22;11261;52.456;10.850;2023-07-20T00:38:07;16.90;99.90
22192;DHT22;11261;52.456;10.850;2023-07-20T00:40:36;16.90;99.90
22192;DHT22;11261;52.456;10.850;2023-07-20T00:43:04;16.80;99.90
22192;DHT22;11261;52.456;10.850;2023-07-20T00:45:34;16.90;99.90
22192;DHT22;11261;52.456;10.850;2023-07-20T00:48:05;16.90;99.90
22192;DHT22;11261;52.456;10.850;2023-07-20T00:50:34;16.90;99.90
22192;DHT22;11261;52.456;10.850;2023-07-20T00:53:03;17.00;99.90
22192;DHT22;11261;52.456;10.850;2023-07-20T00:55:33;16.80;99.90
22192;DHT22;11261;52.456;10.850;2023-07-20T00:58:02;16.80;99.90
22192;DHT22;11261;52.456;10.850;2023-07-20T01:00:31;16.80;99.90
22192;DHT22;11261;52.456;10.850;2023-07-20T01:03:00;16.80;99.90
22192;DHT22;11261;52.456;10.850;2023-07-20T01:05:36;16.70;99.90
22192;DHT22;11261;52.456;10.850;2023-07-20T01:08:12;16.60;99.90
22192;DHT22;11261;52.456;10.850;2023-07-20T01:10:46;16.60;99.90
22192;DHT22;11261;52.456;10.850;2023-07-20T01:13:16;16.60;99.90
22192;DHT22;11261;52.456;10.850;2023-07-20T01:15:49;16.50;99.90
22192;DHT22;11261;52.456;10.850;2023-07-20T01:18:19;16.50;99.90
22192;DHT22;11261;52.456;10.850;2023-07-20T01:20:48;16.50;99.90
22192;DHT22;11261;52.456;10.850;2023-07-20T01:23:34;16.40;99.90
22192;DHT22;11261;52.456;10.850;2023-07-20T01:26:33;16.40;99.90
22192;DHT22;11261;52.456;10.850;2023-07-20T01:29:22;16.30;99.90
22192;DHT22;11261;52.456;10.850;2023-07-20T01:31:57;16.20;99.90
22192;DHT22;11261;52.456;10.850;2023-07-20T01:34:26;16.30;99.90
22192;DHT22;11261;52.456;10.850;2023-07-20T01:36:56;16.30;99.90
22192;DHT22;11261;52.456;10.850;2023-07-20T01:39:25;16.30;99.90
22192;DHT22;11261;52.456;10.850;2023-07-20T01:41:53;16.10;99.90
22192;DHT22;11261;52.456;10.850;2023-07-20T01:44:22;16.10;99.90
22192;DHT22;11261;52.456;10.850;2023-07-20T01:46:50;16.10;99.90
22192;DHT22;11261;52.456;10.850;2023-07-20T01:49:20;16.10;99.90
22192;DHT22;11261;52.456;10.850;2023-07-20T01:51:48;16.00;99.90
22192;DHT22;11261;52.456;10.850;2023-07-20T01:54:16;16.00;99.90
22192;DHT22;11261;52.456;10.850;2023-07-20T01:56:44;15.90;99.90
22192;DHT22;11261;52.456;10.850;2023-07-20T01:59:13;15.80;99.90
22192;DHT22;11261;52.456;10.850;2023-07-20T02:01:41;15.90;99.90
22192;DHT22;11261;52.456;10.850;2023-07-20T02:04:10;15.80;99.90
22192;DHT22;11261;52.456;10.850;2023-07-20T02:06:39;15.90;99.90
22192;DHT22;11261;52.456;10.850;2023-07-20T02:09:08;15.90;99.90
22192;DHT22;11261;52.456;10.850;2023-07-20T02:11:36;15.80;99.90
22192;DHT22;11261;52.456;10.850;2023-07-20T02:14:04;15.80;99.90
22192;DHT22;11261;52.456;10.850;2023-07-20T02:16:32;15.80;99.90
22192;DHT22;11261;52.456;10.850;2023-07-20T02:19:01;15.80;99.90
22192;DHT22;11261;52.456;10.850;2023-07-20T02:21:30;15.70;99.90
22192;DHT22;11261;52.456;10.850;2023-07-20T02:24:00;15.70;99.90
22192;DHT22;11261;52.456;10.850;2023-07-20T02:26:28;15.70;99.90
22192;DHT22;11261;52.456;10.850;2023-07-20T02:28:57;15.70;99.90
22192;DHT22;11261;52.456;10.850;2023-07-20T02:31:25;15.70;99.90
22192;DHT22;11261;52.456;10.850;2023-07-20T02:33:53;15.60;99.90
22192;DHT22;11261;52.456;10.850;2023-07-20T02:36:22;15.40;99.90
22192;DHT22;11261;52.456;10.850;2023-07-20T02:38:50;15.40;99.90
22192;DHT22;11261;52.456;10.850;2023-07-20T02:41:20;15.50;99.90
22192;DHT22;11261;52.456;10.850;2023-07-20T02:43:48;15.40;99.90
22192;DHT22;11261;52.456;10.850;2023-07-20T02:46:17;15.50;99.90
22192;DHT22;11261;52.456;10.850;2023-07-20T02:48:45;15.50;99.90
22192;DHT22;11261;52.456;10.850;2023-07-20T02:51:14;15.50;99.90
22192;DHT22;11261;52.456;10.850;2023-07-20T02:53:42;15.40;99.90
22192;DHT22;11261;52.456;10.850;2023-07-20T02:56:10;15.40;99.90
22192;DHT22;11261;52.456;10.850;2023-07-20T02:58:42;15.40;99.90
22192;DHT22;11261;52.456;10.850;2023-07-20T03:01:13;15.40;99.90
22192;DHT22;11261;52.456;10.850;2023-07-20T03:03:42;15.40;99.90
22192;DHT22;11261;52.456;10.850;2023-07-20T03:06:13;15.40;99.90
22192;DHT22;11261;52.456;10.850;2023-07-20T03:08:41;15.30;99.90
22192;DHT22;11261;52.456;10.850;2023-07-20T03:11:14;15.30;99.90
22192;DHT22;11261;52.456;10.850;2023-07-20T03:13:44;15.30;99.90
22192;DHT22;11261;52.456;10.850;2023-07-20T03:16:14;15.40;99.90
22192;DHT22;11261;52.456;10.850;2023-07-20T03:18:45;15.30;99.90
22192;DHT22;11261;52.456;10.850;2023-07-20T03:21:13;15.20;99.90
22192;DHT22;11261;52.456;10.850;2023-07-20T03:23:42;15.10;99.90
22192;DHT22;11261;52.456;10.850;2023-07-20T03:26:10;15.20;99.90
22192;DHT22;11261;52.456;10.850;2023-07-20T03:28:38;15.10;99.90
22192;DHT22;11261;52.456;10.850;2023-07-20T03:31:08;15.20;99.90
22192;DHT22;11261;52.456;10.850;2023-07-20T03:33:36;15.00;99.90
22192;DHT22;11261;52.456;10.850;2023-07-20T03:36:05;14.90;99.90
22192;DHT22;11261;52.456;10.850;2023-07-20T03:38:33;14.90;99.90
22192;DHT22;11261;52.456;10.850;2023-07-20T03:41:01;14.90;99.90
22192;DHT22;11261;52.456;10.850;2023-07-20T03:43:30;15.00;99.90
22192;DHT22;11261;52.456;10.850;2023-07-20T03:45:58;14.90;99.90
22192;DHT22;11261;52.456;10.850;2023-07-20T03:48:27;15.10;99.90
22192;DHT22;11261;52.456;10.850;2023-07-20T03:50:56;15.10;99.90
22192;DHT22;11261;52.456;10.850;2023-07-20T03:53:25;15.00;99.90
22192;DHT22;11261;52.456;10.850;2023-07-20T03:55:53;15.20;99.90
22192;DHT22;11261;52.456;10.850;2023-07-20T03:58:22;15.30;99.90
22192;DHT22;11261;52.456;10.850;2023-07-20T04:00:51;15.30;99.90
22192;DHT22;11261;52.456;10.850;2023-07-20T04:03:20;15.30;99.90
22192;DHT22;11261;52.456;10.850;2023-07-20T04:05:52;15.30;99.90
22192;DHT22;11261;52.456;10.850;2023-07-20T04:08:22;15.40;99.90
22192;DHT22;11261;52.456;10.850;2023-07-20T04:10:51;15.40;99.90
22192;DHT22;11261;52.456;10.850;2023-07-20T04:13:19;15.30;99.90
22192;DHT22;11261;52.456;10.850;2023-07-20T04:15:47;15.20;99.90
22192;DHT22;11261;52.456;10.850;2023-07-20T04:18:15;15.30;99.90
22192;DHT22;11261;52.456;10.850;2023-07-20T04:20:44;15.30;99.90
22192;DHT22;11261;52.456;10.850;2023-07-20T04:23:14;15.40;99.90
22192;DHT22;11261;52.456;10.850;2023-07-20T04:25:43;15.40;99.90
22192;DHT22;11261;52.456;10.850;2023-07-20T04:28:11;15.40;99.90
22192;DHT22;11261;52.456;10.850;2023-07-20T04:30:40;15.50;99.90
22192;DHT22;11261;52.456;10.850;2023-07-20T04:33:08;15.30;99.90
22192;DHT22;11261;52.456;10.850;2023-07-20T04:35:49;15.30;99.90
22192;DHT22;11261;52.456;10.850;2023-07-20T04:38:19;15.30;99.90
22192;DHT22;11261;52.456;10.850;2023-07-20T04:40:48;15.30;99.90
22192;DHT22;11261;52.456;10.850;2023-07-20T04:43:18;15.50;99.90
22192;DHT22;11261;52.456;10.850;2023-07-20T04:45:46;15.50;99.90
22192;DHT22;11261;52.456;10.850;2023-07-20T04:48:16;15.40;99.90
22192;DHT22;11261;52.456;10.850;2023-07-20T04:50:45;15.60;99.90
22192;DHT22;11261;52.456;10.850;2023-07-20T04:53:14;15.60;99.90
22192;DHT22;11261;52.456;10.850;2023-07-20T04:55:49;15.50;99.90
22192;DHT22;11261;52.456;10.850;2023-07-20T04:58:20;15.70;99.90
22192;DHT22;11261;52.456;10.850;2023-07-20T05:00:48;15.80;99.90
22192;DHT22;11261;52.456;10.850;2023-07-20T05:03:17;15.80;99.90
22192;DHT22;11261;52.456;10.850;2023-07-20T05:05:46;15.80;99.90
22192;DHT22;11261;52.456;10.850;2023-07-20T05:08:16;16.10;99.90
22192;DHT22;11261;52.456;10.850;2023-07-20T05:10:44;17.30;99.90
22192;DHT22;11261;52.456;10.850;2023-07-20T05:13:14;17.80;99.90
22192;DHT22;11261;52.456;10.850;2023-07-20T05:15:42;17.70;99.90
22192;DHT22;11261;52.456;10.850;2023-07-20T05:18:11;17.40;99.90
22192;DHT22;11261;52.456;10.850;2023-07-20T05:20:39;17.10;99.90
22192;DHT22;11261;52.456;10.850;2023-07-20T05:23:07;17.00;99.90
22192;DHT22;11261;52.456;10.850;2023-07-20T05:25:36;16.80;99.90
22192;DHT22;11261;52.456;10.850;2023-07-20T05:28:05;16.70;99.90
22192;DHT22;11261;52.456;10.850;2023-07-20T05:30:34;16.80;99.90
22192;DHT22;11261;52.456;10.850;2023-07-20T05:33:03;16.80;99.90
22192;DHT22;11261;52.456;10.850;2023-07-20T05:35:31;16.80;99.90
22192;DHT22;11261;52.456;10.850;2023-07-20T05:37:59;16.90;99.90
22192;DHT22;11261;52.456;10.850;2023-07-20T05:40:27;16.90;99.90
22192;DHT22;11261;52.456;10.850;2023-07-20T05:42:56;16.90;99.90
22192;DHT22;11261;52.456;10.850;2023-07-20T05:45:24;16.80;99.90
22192;DHT22;11261;52.456;10.850;2023-07-20T05:47:53;16.80;99.90
22192;DHT22;11261;52.456;10.850;2023-07-20T05:50:22;16.80;99.90
22192;DHT22;11261;52.456;10.850;2023-07-20T05:52:52;16.80;99.90
22192;DHT22;11261;52.456;10.850;2023-07-20T05:55:21;16.80;99.90
22192;DHT22;11261;52.456;10.850;2023-07-20T05:57:49;16.70;99.90
22192;DHT22;11261;52.456;10.850;2023-07-20T06:00:18;16.60;99.90
22192;DHT22;11261;52.456;10.850;2023-07-20T06:02:54;16.60;99.90
22192;DHT22;11261;52.456;10.850;2023-07-20T06:05:23;16.50;99.90
22192;DHT22;11261;52.456;10.850;2023-07-20T06:07:55;16.60;99.90
22192;DHT22;11261;52.456;10.850;2023-07-20T06:10:24;16.70;99.90
22192;DHT22;11261;52.456;10.850;2023-07-20T06:12:53;16.50;99.90
22192;DHT22;11261;52.456;10.850;2023-07-20T06:15:26;16.50;99.90
22192;DHT22;11261;52.456;10.850;2023-07-20T06:17:56;16.60;99.90
22192;DHT22;11261;52.456;10.850;2023-07-20T06:20:25;16.60;99.90
22192;DHT22;11261;52.456;10.850;2023-07-20T06:22:53;16.50;99.90
22192;DHT22;11261;52.456;10.850;2023-07-20T06:25:21;16.60;99.90
22192;DHT22;11261;52.456;10.850;2023-07-20T06:27:50;16.60;99.90
22192;DHT22;11261;52.456;10.850;2023-07-20T06:30:19;16.50;99.90
22192;DHT22;11261;52.456;10.850;2023-07-20T06:32:47;16.50;99.90
22192;DHT22;11261;52.456;10.850;2023-07-20T06:35:17;16.50;99.90
22192;DHT22;11261;52.456;10.850;2023-07-20T06:37:46;16.60;99.90
22192;DHT22;11261;52.456;10.850;2023-07-20T06:40:14;16.50;99.90
22192;DHT22;11261;52.456;10.850;2023-07-20T06:42:45;16.50;99.90
22192;DHT22;11261;52.456;10.850;2023-07-20T06:45:16;16.30;99.90
22192;DHT22;11261;52.456;10.850;2023-07-20T06:47:45;16.20;99.90
22192;DHT22;11261;52.456;10.850;2023-07-20T06:50:13;16.00;99.90
22192;DHT22;11261;52.456;10.850;2023-07-20T06:52:45;16.20;99.90
22192;DHT22;11261;52.456;10.850;2023-07-20T06:55:15;16.20;99.90
22192;DHT22;11261;52.456;10.850;2023-07-20T06:57:49;16.10;99.90
22192;DHT22;11261;52.456;10.850;2023-07-20T07:00:19;16.20;99.90
22192;DHT22;11261;52.456;10.850;2023-07-20T07:02:47;16.10;99.90
22192;DHT22;11261;52.456;10.850;2023-07-20T07:05:17;16.30;99.90
22192;DHT22;11261;52.456;10.850;2023-07-20T07:07:48;16.40;99.90
22192;DHT22;11261;52.456;10.850;2023-07-20T07:10:17;16.50;99.90
22192;DHT22;11261;52.456;10.850;2023-07-20T07:12:45;16.40;99.90
22192;DHT22;11261;52.456;10.850;2023-07-20T07:15:14;16.30;99.90
22192;DHT22;11261;52.456;10.850;2023-07-20T07:17:43;16.50;99.90
22192;DHT22;11261;52.456;10.850;2023-07-20T07:20:11;16.60;99.90
22192;DHT22;11261;52.456;10.850;2023-07-20T07:22:50;16.80;99.90
22192;DHT22;11261;52.456;10.850;2023-07-20T07:25:20;16.80;99.90
22192;DHT22;11261;52.456;10.850;2023-07-20T07:27:50;16.90;99.90
22192;DHT22;11261;52.456;10.850;2023-07-20T07:30:19;17.00;99.90
22192;DHT22;11261;52.456;10.850;2023-07-20T07:32:49;17.00;99.90
22192;DHT22;11261;52.456;10.850;2023-07-20T07:35:18;17.20;99.90
22192;DHT22;11261;52.456;10.850;2023-07-20T07:37:47;17.10;99.90
22192;DHT22;11261;52.456;10.850;2023-07-20T07:40:35;17.20;99.90
22192;DHT22;11261;52.456;10.850;2023-07-20T07:43:03;17.40;99.90
22192;DHT22;11261;52.456;10.850;2023-07-20T07:45:34;17.60;99.90
22192;DHT22;11261;52.456;10.850;2023-07-20T07:48:04;17.70;99.90
22192;DHT22;11261;52.456;10.850;2023-07-20T07:50:32;17.90;99.90
22192;DHT22;11261;52.456;10.850;2023-07-20T07:53:01;18.00;99.90
22192;DHT22;11261;52.456;10.850;2023-07-20T07:55:30;18.20;99.90
22192;DHT22;11261;52.456;10.850;2023-07-20T07:57:58;18.50;99.90
22192;DHT22;11261;52.456;10.850;2023-07-20T08:00:26;18.80;99.90
22192;DHT22;11261;52.456;10.850;2023-07-20T08:02:55;18.90;99.90
22192;DHT22;11261;52.456;10.850;2023-07-20T08:05:23;18.80;99.90
22192;DHT22;11261;52.456;10.850;2023-07-20T08:07:53;18.70;99.90
22192;DHT22;11261;52.456;10.850;2023-07-20T08:10:22;19.00;99.90
22192;DHT22;11261;52.456;10.850;2023-07-20T08:12:51;18.90;99.90
22192;DHT22;11261;52.456;10.850;2023-07-20T08:15:19;19.00;99.90
22192;DHT22;11261;52.456;10.850;2023-07-20T08:17:47;19.40;99.90
22192;DHT22;11261;52.456;10.850;2023-07-20T08:20:19;19.20;99.90
22192;DHT22;11261;52.456;10.850;2023-07-20T08:22:53;19.70;99.90
22192;DHT22;11261;52.456;10.850;2023-07-20T08:25:23;20.70;99.90
22192;DHT22;11261;52.456;10.850;2023-07-20T08:27:51;20.40;99.90
22192;DHT22;11261;52.456;10.850;2023-07-20T08:30:21;20.50;99.90
22192;DHT22;11261;52.456;10.850;2023-07-20T08:32:50;20.90;99.90
22192;DHT22;11261;52.456;10.850;2023-07-20T08:35:19;21.00;99.90
22192;DHT22;11261;52.456;10.850;2023-07-20T08:37:49;21.40;99.90
22192;DHT22;11261;52.456;10.850;2023-07-20T08:40:17;21.50;99.90
22192;DHT22;11261;52.456;10.850;2023-07-20T08:42:47;21.70;99.90
22192;DHT22;11261;52.456;10.850;2023-07-20T08:45:16;22.10;99.90
22192;DHT22;11261;52.456;10.850;2023-07-20T08:47:45;22.60;99.90
22192;DHT22;11261;52.456;10.850;2023-07-20T08:50:16;23.00;99.90
22192;DHT22;11261;52.456;10.850;2023-07-20T08:52:44;23.40;99.90
22192;DHT22;11261;52.456;10.850;2023-07-20T08:55:13;23.80;99.90
22192;DHT22;11261;52.456;10.850;2023-07-20T08:57:42;23.20;99.90
22192;DHT22;11261;52.456;10.850;2023-07-20T09:00:15;23.10;99.90
22192;DHT22;11261;52.456;10.850;2023-07-20T09:02:45;22.60;99.90
22192;DHT22;11261;52.456;10.850;2023-07-20T09:05:14;22.10;99.90
22192;DHT22;11261;52.456;10.850;2023-07-20T09:07:43;22.90;99.90
22192;DHT22;11261;52.456;10.850;2023-07-20T09:10:12;22.70;99.90
22192;DHT22;11261;52.456;10.850;2023-07-20T09:12:42;23.00;99.90
22192;DHT22;11261;52.456;10.850;2023-07-20T09:15:11;23.00;99.90
22192;DHT22;11261;52.456;10.850;2023-07-20T09:17:45;22.90;99.90
22192;DHT22;11261;52.456;10.850;2023-07-20T09:20:15;22.90;99.90
22192;DHT22;11261;52.456;10.850;2023-07-20T09:22:48;23.50;99.90
22192;DHT22;11261;52.456;10.850;2023-07-20T09:25:18;24.40;99.90
22192;DHT22;11261;52.456;10.850;2023-07-20T09:27:49;24.60;98.10
22192;DHT22;11261;52.456;10.850;2023-07-20T09:30:18;24.40;98.60
22192;DHT22;11261;52.456;10.850;2023-07-20T09:32:49;23.80;99.90
22192;DHT22;11261;52.456;10.850;2023-07-20T09:35:21;24.00;98.30
22192;DHT22;11261;52.456;10.850;2023-07-20T09:38:00;24.60;99.00
22192;DHT22;11261;52.456;10.850;2023-07-20T09:40:37;24.70;96.80
22192;DHT22;11261;52.456;10.850;2023-07-20T09:43:09;25.30;96.30
22192;DHT22;11261;52.456;10.850;2023-07-20T09:45:42;25.20;94.90
22192;DHT22;11261;52.456;10.850;2023-07-20T09:48:15;25.30;97.60
22192;DHT22;11261;52.456;10.850;2023-07-20T09:50:49;25.50;95.40
22192;DHT22;11261;52.456;10.850;2023-07-20T09:53:18;25.70;92.30
22192;DHT22;11261;52.456;10.850;2023-07-20T09:55:47;25.20;95.80
22192;DHT22;11261;52.456;10.850;2023-07-20T09:58:16;25.60;92.10
22192;DHT22;11261;52.456;10.850;2023-07-20T10:00:46;25.90;92.70
22192;DHT22;11261;52.456;10.850;2023-07-20T10:03:25;26.10;89.80
22192;DHT22;11261;52.456;10.850;2023-07-20T10:06:05;25.50;90.30
22192;DHT22;11261;52.456;10.850;2023-07-20T10:08:38;25.30;90.60
22192;DHT22;11261;52.456;10.850;2023-07-20T10:11:12;26.00;88.40
22192;DHT22;11261;52.456;10.850;2023-07-20T10:13:44;25.70;90.70
22192;DHT22;11261;52.456;10.850;2023-07-20T10:16:17;26.10;88.20
22192;DHT22;11261;52.456;10.850;2023-07-20T10:18:54;25.80;86.40
22192;DHT22;11261;52.456;10.850;2023-07-20T10:21:28;26.10;90.00
22192;DHT22;11261;52.456;10.850;2023-07-20T10:24:00;26.30;87.30
22192;DHT22;11261;52.456;10.850;2023-07-20T10:26:29;27.00;89.10
22192;DHT22;11261;52.456;10.850;2023-07-20T10:29:03;26.70;83.50
22192;DHT22;11261;52.456;10.850;2023-07-20T10:31:33;26.50;80.00
22192;DHT22;11261;52.456;10.850;2023-07-20T10:34:03;27.00;86.10
22192;DHT22;11261;52.456;10.850;2023-07-20T10:36:32;26.70;82.20
22192;DHT22;11261;52.456;10.850;2023-07-20T10:39:00;26.70;87.00
22192;DHT22;11261;52.456;10.850;2023-07-20T10:41:34;27.40;82.60
22192;DHT22;11261;52.456;10.850;2023-07-20T10:44:03;27.00;82.30
22192;DHT22;11261;52.456;10.850;2023-07-20T10:46:42;26.60;83.80
22192;DHT22;11261;52.456;10.850;2023-07-20T10:49:13;25.70;80.00
22192;DHT22;11261;52.456;10.850;2023-07-20T10:51:43;25.60;80.70
22192;DHT22;11261;52.456;10.850;2023-07-20T10:54:34;25.70;81.80
22192;DHT22;11261;52.456;10.850;2023-07-20T10:57:28;25.90;83.90
22192;DHT22;11261;52.456;10.850;2023-07-20T11:00:11;26.10;79.20
22192;DHT22;11261;52.456;10.850;2023-07-20T11:02:48;26.30;82.10
22192;DHT22;11261;52.456;10.850;2023-07-20T11:05:36;26.20;85.20
22192;DHT22;11261;52.456;10.850;2023-07-20T11:08:06;26.90;82.70
22192;DHT22;11261;52.456;10.850;2023-07-20T11:10:37;27.20;79.80
22192;DHT22;11261;52.456;10.850;2023-07-20T11:13:22;26.80;81.30
22192;DHT22;11261;52.456;10.850;2023-07-20T11:16:04;26.90;83.20
22192;DHT22;11261;52.456;10.850;2023-07-20T11:18:34;26.20;80.00
22192;DHT22;11261;52.456;10.850;2023-07-20T11:21:09;26.40;79.60
22192;DHT22;11261;52.456;10.850;2023-07-20T11:23:39;26.80;79.00
22192;DHT22;11261;52.456;10.850;2023-07-20T11:26:08;26.70;78.70
22192;DHT22;11261;52.456;10.850;2023-07-20T11:28:38;27.10;80.00
22192;DHT22;11261;52.456;10.850;2023-07-20T11:31:06;26.70;77.80
22192;DHT22;11261;52.456;10.850;2023-07-20T11:33:34;27.10;75.00
22192;DHT22;11261;52.456;10.850;2023-07-20T11:36:03;27.80;76.90
22192;DHT22;11261;52.456;10.850;2023-07-20T11:38:53;27.10;81.10
22192;DHT22;11261;52.456;10.850;2023-07-20T11:41:22;27.80;79.90
22192;DHT22;11261;52.456;10.850;2023-07-20T11:43:50;27.70;77.40
22192;DHT22;11261;52.456;10.850;2023-07-20T11:46:18;27.30;76.60
22192;DHT22;11261;52.456;10.850;2023-07-20T11:48:47;26.50;77.30
22192;DHT22;11261;52.456;10.850;2023-07-20T11:51:16;25.80;78.70
22192;DHT22;11261;52.456;10.850;2023-07-20T11:53:45;25.90;78.00
22192;DHT22;11261;52.456;10.850;2023-07-20T11:56:16;25.40;78.80
22192;DHT22;11261;52.456;10.850;2023-07-20T11:58:44;25.30;80.40
22192;DHT22;11261;52.456;10.850;2023-07-20T12:01:13;26.50;79.50
22192;DHT22;11261;52.456;10.850;2023-07-20T12:03:43;25.90;77.90
22192;DHT22;11261;52.456;10.850;2023-07-20T12:06:12;25.40;80.60
22192;DHT22;11261;52.456;10.850;2023-07-20T12:08:43;25.30;77.80
22192;DHT22;11261;52.456;10.850;2023-07-20T12:11:12;26.40;80.20
22192;DHT22;11261;52.456;10.850;2023-07-20T12:13:43;26.70;76.70
22192;DHT22;11261;52.456;10.850;2023-07-20T12:16:13;26.40;77.50
22192;DHT22;11261;52.456;10.850;2023-07-20T12:18:42;26.70;78.90
22192;DHT22;11261;52.456;10.850;2023-07-20T12:21:11;26.20;76.00
22192;DHT22;11261;52.456;10.850;2023-07-20T12:23:40;25.60;79.60
22192;DHT22;11261;52.456;10.850;2023-07-20T12:26:09;25.90;77.90
22192;DHT22;11261;52.456;10.850;2023-07-20T12:28:42;26.00;80.50
22192;DHT22;11261;52.456;10.850;2023-07-20T12:31:10;25.60;79.20
22192;DHT22;11261;52.456;10.850;2023-07-20T12:33:40;25.20;77.50
22192;DHT22;11261;52.456;10.850;2023-07-20T12:36:09;25.20;76.80
22192;DHT22;11261;52.456;10.850;2023-07-20T12:38:37;25.20;75.40
22192;DHT22;11261;52.456;10.850;2023-07-20T12:41:06;24.90;77.00
22192;DHT22;11261;52.456;10.850;2023-07-20T12:43:34;24.40;76.50
22192;DHT22;11261;52.456;10.850;2023-07-20T12:46:04;25.10;77.50
22192;DHT22;11261;52.456;10.850;2023-07-20T12:48:32;25.60;75.00
22192;DHT22;11261;52.456;10.850;2023-07-20T12:51:01;25.20;73.90
22192;DHT22;11261;52.456;10.850;2023-07-20T12:53:31;25.20;74.20
22192;DHT22;11261;52.456;10.850;2023-07-20T12:56:00;26.00;75.10
22192;DHT22;11261;52.456;10.850;2023-07-20T12:58:49;25.90;70.60
22192;DHT22;11261;52.456;10.850;2023-07-20T13:01:18;26.60;71.50
22192;DHT22;11261;52.456;10.850;2023-07-20T13:03:47;26.60;73.20
22192;DHT22;11261;52.456;10.850;2023-07-20T13:06:18;26.10;69.40
22192;DHT22;11261;52.456;10.850;2023-07-20T13:08:49;25.90;74.40
22192;DHT22;11261;52.456;10.850;2023-07-20T13:11:18;25.60;70.80
22192;DHT22;11261;52.456;10.850;2023-07-20T13:13:46;25.10;73.30
22192;DHT22;11261;52.456;10.850;2023-07-20T13:16:14;24.80;74.20
22192;DHT22;11261;52.456;10.850;2023-07-20T13:18:45;25.50;72.10
22192;DHT22;11261;52.456;10.850;2023-07-20T13:21:13;25.70;71.40
22192;DHT22;11261;52.456;10.850;2023-07-20T13:23:41;26.00;71.40
22192;DHT22;11261;52.456;10.850;2023-07-20T13:26:10;26.10;68.70
22192;DHT22;11261;52.456;10.850;2023-07-20T13:28:39;26.30;70.70
22192;DHT22;11261;52.456;10.850;2023-07-20T13:31:08;26.40;71.90
22192;DHT22;11261;52.456;10.850;2023-07-20T13:33:39;26.60;72.00
22192;DHT22;11261;52.456;10.850;2023-07-20T13:36:09;26.50;67.20
22192;DHT22;11261;52.456;10.850;2023-07-20T13:38:38;26.60;69.80
22192;DHT22;11261;52.456;10.850;2023-07-20T13:41:06;26.90;71.80
22192;DHT22;11261;52.456;10.850;2023-07-20T13:43:35;26.90;71.50
22192;DHT22;11261;52.456;10.850;2023-07-20T13:46:05;27.20;65.80
22192;DHT22;11261;52.456;10.850;2023-07-20T13:48:33;26.70;68.50
22192;DHT22;11261;52.456;10.850;2023-07-20T13:51:03;26.80;67.50
22192;DHT22;11261;52.456;10.850;2023-07-20T13:53:33;27.00;67.80
22192;DHT22;11261;52.456;10.850;2023-07-20T13:56:04;27.30;66.70
22192;DHT22;11261;52.456;10.850;2023-07-20T13:58:35;27.10;66.20
22192;DHT22;11261;52.456;10.850;2023-07-20T14:01:06;26.90;67.50
22192;DHT22;11261;52.456;10.850;2023-07-20T14:03:35;26.00;68.50
22192;DHT22;11261;52.456;10.850;2023-07-20T14:06:04;25.90;68.10
22192;DHT22;11261;52.456;10.850;2023-07-20T14:08:37;26.10;68.60
22192;DHT22;11261;52.456;10.850;2023-07-20T14:11:06;26.30;70.00
22192;DHT22;11261;52.456;10.850;2023-07-20T14:13:37;26.30;69.10
22192;DHT22;11261;52.456;10.850;2023-07-20T14:16:13;26.00;69.60
22192;DHT22;11261;52.456;10.850;2023-07-20T14:18:42;26.50;69.80
22192;DHT22;11261;52.456;10.850;2023-07-20T14:21:15;26.30;70.30
22192;DHT22;11261;52.456;10.850;2023-07-20T14:23:47;26.70;70.50
22192;DHT22;11261;52.456;10.850;2023-07-20T14:26:15;27.20;67.90
22192;DHT22;11261;52.456;10.850;2023-07-20T14:28:43;27.00;68.40
22192;DHT22;11261;52.456;10.850;2023-07-20T14:31:12;26.50;69.60
22192;DHT22;11261;52.456;10.850;2023-07-20T14:33:40;26.20;70.40
22192;DHT22;11261;52.456;10.850;2023-07-20T14:36:09;25.80;68.80
22192;DHT22;11261;52.456;10.850;2023-07-20T14:38:37;26.00;70.40
22192;DHT22;11261;52.456;10.850;2023-07-20T14:41:08;26.00;67.60
22192;DHT22;11261;52.456;10.850;2023-07-20T14:43:38;25.90;70.10
22192;DHT22;11261;52.456;10.850;2023-07-20T14:46:07;25.90;69.20
22192;DHT22;11261;52.456;10.850;2023-07-20T14:48:35;25.90;70.40
22192;DHT22;11261;52.456;10.850;2023-07-20T14:51:03;26.10;70.60
22192;DHT22;11261;52.456;10.850;2023-07-20T14:53:32;25.80;68.10
22192;DHT22;11261;52.456;10.850;2023-07-20T14:56:03;26.30;69.50
22192;DHT22;11261;52.456;10.850;2023-07-20T14:58:32;25.80;66.70
22192;DHT22;11261;52.456;10.850;2023-07-20T15:01:02;26.00;69.40
22192;DHT22;11261;52.456;10.850;2023-07-20T15:03:31;25.80;69.70
22192;DHT22;11261;52.456;10.850;2023-07-20T15:06:01;25.60;71.50
22192;DHT22;11261;52.456;10.850;2023-07-20T15:08:30;25.40;71.00
22192;DHT22;11261;52.456;10.850;2023-07-20T15:10:58;25.10;72.00
22192;DHT22;11261;52.456;10.850;2023-07-20T15:13:27;25.50;70.90
22192;DHT22;11261;52.456;10.850;2023-07-20T15:15:57;25.40;71.80
22192;DHT22;11261;52.456;10.850;2023-07-20T15:18:25;25.20;71.00
22192;DHT22;11261;52.456;10.850;2023-07-20T15:21:12;25.20;71.40
22192;DHT22;11261;52.456;10.850;2023-07-20T15:23:41;25.50;70.50
22192;DHT22;11261;52.456;10.850;2023-07-20T15:26:09;25.60;71.70
22192;DHT22;11261;52.456;10.850;2023-07-20T15:28:39;25.60;71.80
22192;DHT22;11261;52.456;10.850;2023-07-20T15:31:09;25.60;70.80
22192;DHT22;11261;52.456;10.850;2023-07-20T15:33:38;25.80;72.20